Sosnovy Bor, Russia
Current Conditions -  °F | °C
As of 2:20 PM on Friday 28 Nov 2014 (Local Time) from EFLP Reporting Station
Light Snow Light Snow  
Wind Chill: 32°   Ceiling: 100
Heat Index: 32°   Visibility: 0.25mi
Dew Point: 32°   Wind: 3mph
Humidity: 100%   Direction: 150°SSE
Pressure: 30.5"   Gusts: NA
Location:  60.53°N, 28.68°E
Report Text: EFLP 281120Z AUTO 15003KT 0400 R06/0900N R24/0900D -RASN FG OVC00100/00 Q1033
Loading
Personal Weather Stations






























Interactive Weather Map New forecast layout! Learn more

10-Day Weather Forecast

Advertisements
Track Severe Weather on mobile